Time;durP1;ratioP1;P1;durP2;ratioP2;P2;SDS_P1;SDS_P2;PMS_P1;PMS_P2;Temp;Humidity;BMP_temperature;BMP_pressure;BME280_temperature;BME280_humidity;BME280_pressure;Samples;Min_cycle;Max_cycle;Signal;HPM_P1;HPM_P2
2023/03/03 00:02:02;;;;;;;99.03;36.40;;;1.30;99.90;;;;;;5071750;28;20511;-55
2023/03/03 00:04:28;;;;;;;98.27;35.63;;;1.30;99.90;;;;;;5053754;28;20098;-55
2023/03/03 00:06:54;;;;;;;95.43;35.17;;;1.40;99.90;;;;;;5071787;28;20033;-54
2023/03/03 00:09:19;;;;;;;91.63;36.00;;;1.40;99.90;;;;;;5071678;28;20036;-55
2023/03/03 00:11:48;;;;;;;104.93;35.90;;;1.30;99.90;;;;;;5071725;28;20032;-54
2023/03/03 00:14:27;;;;;;;84.18;31.60;;;1.40;99.90;;;;;;5071507;28;20035;-56
2023/03/03 00:16:54;;;;;;;97.32;37.70;;;1.40;99.90;;;;;;5071509;28;20181;-56
2023/03/03 00:19:20;;;;;;;101.30;38.23;;;1.40;99.90;;;;;;5053741;28;20098;-56
2023/03/03 00:21:51;;;;;;;103.30;37.07;;;1.40;99.90;;;;;;5071324;28;20435;-54
2023/03/03 00:24:17;;;;;;;104.00;37.77;;;1.50;99.90;;;;;;5071385;28;20088;-56
2023/03/03 00:26:54;;;;;;;99.07;37.63;;;1.50;99.90;;;;;;5071263;28;20036;-55
2023/03/03 00:29:26;;;;;;;99.33;37.67;;;1.50;99.90;;;;;;5071304;28;20388;-53
2023/03/03 00:31:52;;;;;;;107.50;38.93;;;1.50;99.90;;;;;;5071599;28;20032;-55
2023/03/03 00:34:18;;;;;;;109.47;39.87;;;1.50;99.90;;;;;;5071023;28;20021;-55
2023/03/03 00:36:52;;;;;;;106.33;40.10;;;1.50;99.90;;;;;;5070826;28;20032;-56
2023/03/03 00:39:17;;;;;;;98.57;39.93;;;1.50;99.90;;;;;;5053010;28;20077;-55
2023/03/03 00:41:43;;;;;;;106.87;39.53;;;1.50;99.90;;;;;;5070870;28;20435;-57
2023/03/03 00:44:48;;;;;;;105.00;39.63;;;1.50;99.90;;;;;;5052910;28;20028;-54
2023/03/03 00:47:28;;;;;;;107.73;41.13;;;1.60;99.90;;;;;;5029972;28;20127;-55
2023/03/03 00:50:04;;;;;;;104.07;38.30;;;1.60;99.90;;;;;;5070789;28;20036;-54
2023/03/03 00:52:33;;;;;;;103.47;40.20;;;1.60;99.90;;;;;;5071269;28;20401;-54
2023/03/03 00:54:59;;;;;;;91.85;36.17;;;1.60;99.90;;;;;;5070529;28;20051;-53
2023/03/03 00:57:24;;;;;;;101.13;38.20;;;1.60;99.90;;;;;;5070590;28;20032;-51
2023/03/03 00:59:51;;;;;;;93.07;36.87;;;1.60;99.90;;;;;;5052632;28;20584;-55
2023/03/03 01:02:17;;;;;;;94.23;36.17;;;1.50;99.90;;;;;;5052662;28;20059;-55
2023/03/03 01:04:48;;;;;;;93.47;37.50;;;1.40;99.90;;;;;;5052471;28;20056;-55
2023/03/03 01:07:14;;;;;;;98.07;37.60;;;1.40;99.90;;;;;;5070474;28;20029;-54
2023/03/03 01:09:40;;;;;;;94.77;36.43;;;1.40;99.90;;;;;;5070622;28;20032;-55
2023/03/03 01:12:06;;;;;;;97.83;36.27;;;1.30;99.90;;;;;;5070630;28;20033;-54
2023/03/03 01:14:32;;;;;;;101.80;37.07;;;1.40;99.90;;;;;;5070597;28;20032;-55
2023/03/03 01:16:58;;;;;;;96.97;37.07;;;1.40;99.90;;;;;;5052135;28;20119;-54
2023/03/03 01:19:24;;;;;;;92.57;35.63;;;1.30;99.90;;;;;;5070425;28;20085;-54
2023/03/03 01:21:50;;;;;;;93.47;35.40;;;1.30;99.90;;;;;;5052416;28;20028;-54
2023/03/03 01:24:16;;;;;;;93.50;36.33;;;1.30;99.90;;;;;;5052292;28;20032;-54
2023/03/03 01:26:42;;;;;;;94.23;36.90;;;1.40;99.90;;;;;;5052293;28;20081;-54
2023/03/03 01:29:08;;;;;;;84.10;33.70;;;1.40;99.90;;;;;;5070378;28;20024;-55
2023/03/03 01:31:34;;;;;;;90.17;35.43;;;1.30;99.90;;;;;;5070191;28;20449;-55
2023/03/03 01:34:00;;;;;;;86.40;35.23;;;1.40;99.90;;;;;;5070168;28;20028;-54
2023/03/03 01:36:27;;;;;;;80.30;32.53;;;1.40;99.90;;;;;;5052156;28;20389;-53
2023/03/03 01:38:53;;;;;;;78.73;30.70;;;1.40;99.90;;;;;;5070234;28;20056;-54
2023/03/03 01:41:19;;;;;;;80.17;31.00;;;1.40;99.90;;;;;;5070324;28;20520;-54
2023/03/03 01:43:48;;;;;;;79.90;31.47;;;1.40;99.90;;;;;;5052206;28;20024;-53
2023/03/03 01:46:39;;;;;;;81.55;30.33;;;1.30;99.90;;;;;;5070173;28;20405;-55
2023/03/03 01:49:24;;;;;;;76.20;30.70;;;1.30;99.90;;;;;;5070260;28;20064;-51
2023/03/03 01:51:55;;;;;;;79.50;31.13;;;1.30;99.90;;;;;;5072392;28;20234;-54
2023/03/03 01:54:30;;;;;;;77.77;31.37;;;1.40;99.90;;;;;;5056152;28;20024;-55
2023/03/03 01:57:02;;;;;;;89.83;35.00;;;1.30;99.90;;;;;;5056113;28;20035;-53
2023/03/03 01:59:33;;;;;;;86.60;34.73;;;1.30;99.90;;;;;;5056255;28;20039;-56
2023/03/03 02:01:59;;;;;;;83.00;35.00;;;1.30;99.90;;;;;;5074127;28;20095;-52
2023/03/03 02:04:27;;;;;;;91.77;36.80;;;1.30;99.90;;;;;;5055948;28;20082;-56
2023/03/03 02:06:59;;;;;;;92.63;35.93;;;1.20;99.90;;;;;;5073939;28;20036;-52
2023/03/03 02:09:46;;;;;;;86.40;33.97;;;1.20;99.90;;;;;;5056098;28;20127;-55
2023/03/03 02:12:15;;;;;;;85.33;34.07;;;1.20;99.90;;;;;;5056109;28;20043;-55
2023/03/03 02:14:40;;;;;;;78.60;31.67;;;1.20;99.90;;;;;;5074044;28;20024;-55
2023/03/03 02:17:06;;;;;;;86.10;32.63;;;1.20;99.90;;;;;;5073621;28;20025;-55
2023/03/03 02:19:55;;;;;;;85.00;32.40;;;1.20;99.90;;;;;;5055691;28;20025;-55
2023/03/03 02:22:31;;;;;;;89.53;34.37;;;1.20;99.90;;;;;;5073687;28;20035;-55
2023/03/03 02:25:01;;;;;;;88.63;34.07;;;1.20;99.90;;;;;;5073527;28;20441;-55
2023/03/03 02:27:31;;;;;;;84.07;34.60;;;1.20;99.90;;;;;;5055552;28;20082;-56
2023/03/03 02:30:06;;;;;;;92.50;36.78;;;1.30;99.90;;;;;;5073406;28;20024;-56
2023/03/03 02:32:33;;;;;;;98.90;37.73;;;1.30;99.90;;;;;;5055754;28;20404;-55
2023/03/03 02:34:59;;;;;;;94.13;36.23;;;1.30;99.90;;;;;;5055147;28;20078;-55
2023/03/03 02:37:25;;;;;;;91.83;38.20;;;1.30;99.90;;;;;;5073003;28;20233;-55
2023/03/03 02:39:51;;;;;;;95.20;37.30;;;1.30;99.90;;;;;;5055359;28;20542;-54
2023/03/03 02:42:28;;;;;;;92.37;38.00;;;1.20;99.90;;;;;;5055242;28;20059;-54
2023/03/03 02:44:56;;;;;;;97.23;39.77;;;1.20;99.90;;;;;;5055544;28;20028;-55
2023/03/03 02:47:22;;;;;;;94.50;37.40;;;1.20;99.90;;;;;;5055080;28;20366;-56
2023/03/03 02:49:48;;;;;;;80.80;31.77;;;1.10;99.90;;;;;;5055263;28;20123;-56
2023/03/03 02:52:16;;;;;;;71.90;27.53;;;1.10;99.90;;;;;;5073176;28;20469;-52
2023/03/03 02:54:44;;;;;;;70.97;27.70;;;1.10;99.90;;;;;;5054935;28;20047;-55
2023/03/03 02:57:10;;;;;;;71.87;27.33;;;1.10;99.90;;;;;;5054908;28;20552;-54
2023/03/03 02:59:36;;;;;;;76.20;27.77;;;1.10;99.90;;;;;;5055168;28;20068;-54
2023/03/03 03:02:08;;;;;;;73.87;26.83;;;1.10;99.90;;;;;;5054514;28;20647;-55
2023/03/03 03:04:34;;;;;;;75.03;28.17;;;1.00;99.90;;;;;;5072337;28;20108;-54
2023/03/03 03:07:00;;;;;;;81.03;29.10;;;1.00;99.90;;;;;;5072770;28;20021;-52
2023/03/03 03:09:28;;;;;;;85.30;30.27;;;1.00;99.90;;;;;;5054766;28;20086;-56
2023/03/03 03:11:54;;;;;;;85.60;30.47;;;1.00;99.90;;;;;;5054746;28;20033;-54
2023/03/03 03:14:23;;;;;;;;;;;1.00;99.90;;;;;;5055236;28;20401;-52
2023/03/03 03:16:51;;;;;;;83.80;30.17;;;1.00;99.90;;;;;;5054598;28;20077;-56
2023/03/03 03:19:16;;;;;;;90.30;31.33;;;1.00;99.90;;;;;;5038096;28;20033;-52
2023/03/03 03:21:43;;;;;;;90.80;30.70;;;1.00;99.90;;;;;;5054692;28;20451;-56
2023/03/03 03:24:09;;;;;;;85.93;30.57;;;1.00;99.90;;;;;;5054239;28;20029;-54
2023/03/03 03:26:38;;;;;;;99.83;32.43;;;1.00;99.90;;;;;;5038133;28;20484;-55
2023/03/03 03:29:04;;;;;;;92.93;31.33;;;0.90;99.90;;;;;;5072541;28;20115;-54
2023/03/03 03:31:30;;;;;;;96.47;33.03;;;1.00;99.90;;;;;;5054354;28;20052;-53
2023/03/03 03:33:56;;;;;;;97.90;33.83;;;0.90;99.90;;;;;;5072332;28;20115;-54
2023/03/03 03:36:22;;;;;;;97.83;35.17;;;0.90;99.90;;;;;;5054471;28;20033;-54
2023/03/03 03:38:48;;;;;;;93.60;32.73;;;0.90;99.90;;;;;;5072275;28;20427;-54
2023/03/03 03:41:14;;;;;;;101.23;35.07;;;0.90;99.90;;;;;;5072301;28;20040;-54
2023/03/03 03:43:40;;;;;;;98.53;35.53;;;0.90;99.90;;;;;;5053959;28;20028;-54
2023/03/03 03:46:07;;;;;;;103.33;34.73;;;0.90;99.90;;;;;;5054207;28;20032;-54
2023/03/03 03:48:33;;;;;;;104.17;37.10;;;0.80;99.90;;;;;;5054137;28;20036;-53
2023/03/03 03:51:01;;;;;;;104.13;35.40;;;0.80;99.90;;;;;;5054136;28;20055;-55
2023/03/03 03:53:27;;;;;;;103.30;35.93;;;0.80;99.90;;;;;;5071850;28;20029;-55
2023/03/03 03:55:53;;;;;;;111.73;39.60;;;0.80;99.90;;;;;;5054244;28;20043;-52
2023/03/03 03:58:19;;;;;;;118.03;40.23;;;0.90;99.90;;;;;;5053805;28;20028;-56
2023/03/03 04:01:02;;;;;;;114.00;40.07;;;0.80;99.90;;;;;;5053851;28;20389;-57
2023/03/03 04:03:28;;;;;;;121.70;40.67;;;0.80;99.90;;;;;;5071754;28;20021;-56
2023/03/03 04:05:54;;;;;;;117.43;40.03;;;0.70;99.90;;;;;;5053918;28;20032;-56
2023/03/03 04:08:20;;;;;;;114.10;40.33;;;0.70;99.90;;;;;;5053623;28;20454;-55
2023/03/03 04:10:46;;;;;;;106.87;37.90;;;0.70;99.90;;;;;;5071870;28;20036;-53
2023/03/03 04:13:12;;;;;;;107.60;36.60;;;0.70;99.90;;;;;;5053737;28;20036;-55
2023/03/03 04:15:38;;;;;;;108.57;36.07;;;0.70;99.90;;;;;;5053201;28;20094;-54
2023/03/03 04:18:04;;;;;;;110.53;37.07;;;0.70;99.90;;;;;;5053414;28;20024;-55
2023/03/03 04:20:30;;;;;;;99.27;35.87;;;0.60;99.90;;;;;;5036856;28;20043;-56
2023/03/03 04:22:56;;;;;;;113.57;37.77;;;0.60;99.90;;;;;;5053613;28;20043;-55
2023/03/03 04:25:23;;;;;;;114.30;38.13;;;0.60;99.90;;;;;;5053456;28;20050;-55
2023/03/03 04:27:51;;;;;;;103.13;34.63;;;0.50;99.90;;;;;;5071155;28;20500;-55
2023/03/03 04:30:19;;;;;;;123.83;39.73;;;0.50;99.90;;;;;;5053491;28;20029;-56
2023/03/03 04:32:48;;;;;;;100.17;35.17;;;0.60;99.90;;;;;;5053211;28;20047;-58
2023/03/03 04:35:16;;;;;;;98.97;34.43;;;0.60;99.90;;;;;;5053237;28;20090;-57
2023/03/03 04:37:43;;;;;;;97.10;32.87;;;0.60;99.90;;;;;;5053163;28;20028;-56
2023/03/03 04:40:10;;;;;;;95.00;34.47;;;0.60;99.90;;;;;;5053024;28;20133;-57
2023/03/03 04:42:37;;;;;;;94.27;32.03;;;0.60;99.90;;;;;;5076846;22;20131;-50
2023/03/03 04:45:05;;;;;;;102.70;35.00;;;0.60;99.90;;;;;;5069330;28;20101;-53
2023/03/03 04:47:32;;;;;;;100.90;33.10;;;0.60;99.90;;;;;;5069230;28;20405;-51
2023/03/03 04:49:58;;;;;;;92.50;33.27;;;0.60;99.90;;;;;;5071069;28;20291;-49
2023/03/03 04:52:24;;;;;;;96.40;32.43;;;0.60;99.90;;;;;;5069594;28;20024;-52
2023/03/03 04:54:50;;;;;;;93.50;32.93;;;0.50;99.90;;;;;;5069482;28;20555;-54
2023/03/03 04:57:16;;;;;;;96.57;32.27;;;0.50;99.90;;;;;;5069470;28;20072;-50
2023/03/03 04:59:42;;;;;;;95.27;32.47;;;0.60;99.90;;;;;;5069328;28;20078;-53
2023/03/03 05:02:08;;;;;;;91.40;31.23;;;0.50;99.90;;;;;;5069404;28;20416;-48
2023/03/03 05:04:34;;;;;;;96.70;32.87;;;0.60;99.90;;;;;;5070754;28;20029;-50
2023/03/03 05:07:00;;;;;;;85.87;31.13;;;0.60;99.90;;;;;;5070754;28;20035;-50
2023/03/03 05:09:25;;;;;;;94.60;33.30;;;0.70;99.90;;;;;;5070656;28;20036;-51
2023/03/03 05:11:51;;;;;;;99.50;31.73;;;0.70;99.90;;;;;;5070501;28;20082;-48
2023/03/03 05:14:17;;;;;;;94.53;32.37;;;0.60;99.90;;;;;;5070487;28;20031;-52
2023/03/03 05:16:43;;;;;;;93.70;32.87;;;0.60;99.90;;;;;;5070465;28;20543;-50
2023/03/03 05:19:08;;;;;;;88.57;32.07;;;0.60;99.90;;;;;;5070607;28;20400;-49
2023/03/03 05:21:34;;;;;;;93.33;32.47;;;0.60;99.90;;;;;;5070598;28;20111;-52
2023/03/03 05:24:00;;;;;;;96.97;33.63;;;0.60;99.90;;;;;;5070745;28;20032;-51
2023/03/03 05:26:25;;;;;;;102.17;34.07;;;0.60;99.90;;;;;;5069853;28;20033;-49
2023/03/03 05:28:51;;;;;;;95.13;34.20;;;0.60;99.90;;;;;;5070555;28;20040;-51
2023/03/03 05:31:17;;;;;;;98.57;35.07;;;0.50;99.90;;;;;;5070493;28;20544;-52
2023/03/03 05:33:43;;;;;;;102.53;35.47;;;0.50;99.90;;;;;;5070546;28;20037;-52
2023/03/03 05:36:08;;;;;;;99.93;34.00;;;0.50;99.90;;;;;;5070736;28;20033;-53
2023/03/03 05:38:34;;;;;;;102.30;34.77;;;0.50;99.90;;;;;;5070553;28;20029;-52
2023/03/03 05:41:00;;;;;;;103.40;35.33;;;0.50;99.90;;;;;;5070723;28;20089;-53
2023/03/03 05:43:26;;;;;;;106.30;35.87;;;0.50;99.90;;;;;;5070277;28;20024;-53
2023/03/03 05:45:56;;;;;;;110.37;35.83;;;0.50;99.90;;;;;;5070399;28;20086;-53
2023/03/03 05:48:21;;;;;;;102.90;35.37;;;0.60;99.90;;;;;;5070157;28;20050;-52
2023/03/03 05:50:47;;;;;;;106.30;35.67;;;0.60;99.90;;;;;;5070592;28;20461;-53
2023/03/03 05:53:13;;;;;;;102.50;33.87;;;0.60;99.90;;;;;;5070383;28;20027;-53
2023/03/03 05:55:38;;;;;;;95.50;34.03;;;0.60;99.90;;;;;;5070183;28;20052;-53
2023/03/03 05:58:04;;;;;;;100.07;34.00;;;0.60;99.90;;;;;;5070088;28;20111;-53
2023/03/03 06:00:30;;;;;;;118.60;37.27;;;0.70;99.90;;;;;;5070166;28;20392;-50
2023/03/03 06:02:55;;;;;;;115.37;36.93;;;0.60;99.90;;;;;;5070219;28;20090;-50
2023/03/03 06:05:21;;;;;;;102.00;34.47;;;0.60;99.90;;;;;;5070127;28;20077;-52
2023/03/03 06:07:47;;;;;;;103.20;34.37;;;0.60;99.90;;;;;;5070068;28;20385;-51
2023/03/03 06:10:12;;;;;;;103.40;35.23;;;0.70;99.90;;;;;;5070270;28;20120;-51
2023/03/03 06:12:41;;;;;;;112.47;36.57;;;0.70;99.90;;;;;;5068680;28;20115;-52
2023/03/03 06:15:08;;;;;;;104.43;34.63;;;0.70;99.90;;;;;;5070059;28;20044;-53
2023/03/03 06:17:33;;;;;;;110.93;36.93;;;0.70;99.90;;;;;;5070395;28;20464;-49
2023/03/03 06:19:59;;;;;;;99.20;33.57;;;0.70;99.90;;;;;;5070165;28;20068;-49
2023/03/03 06:22:25;;;;;;;106.07;34.43;;;0.80;99.90;;;;;;5069045;28;20060;-52
2023/03/03 06:24:51;;;;;;;98.30;33.83;;;0.80;99.90;;;;;;5070461;28;20071;-50
2023/03/03 06:27:17;;;;;;;108.87;34.77;;;0.80;99.90;;;;;;5069799;28;20085;-51
2023/03/03 06:29:43;;;;;;;107.57;35.63;;;0.90;99.90;;;;;;5070372;28;20032;-52
2023/03/03 06:32:10;;;;;;;103.07;34.00;;;0.90;99.90;;;;;;5070334;28;20040;-51
2023/03/03 06:34:35;;;;;;;104.27;35.60;;;0.90;99.90;;;;;;5070091;28;20047;-52
2023/03/03 06:37:01;;;;;;;112.97;37.37;;;0.90;99.90;;;;;;5070683;28;20422;-53
2023/03/03 06:39:27;;;;;;;112.40;36.50;;;0.80;99.90;;;;;;5073831;28;20028;-52
2023/03/03 06:41:53;;;;;;;113.03;36.00;;;0.90;99.90;;;;;;5073680;28;20098;-51
2023/03/03 06:44:18;;;;;;;96.90;32.93;;;0.90;99.90;;;;;;5073647;28;20518;-51
2023/03/03 06:46:44;;;;;;;97.73;33.23;;;0.90;99.90;;;;;;5073710;28;20056;-53
2023/03/03 06:49:10;;;;;;;94.57;31.77;;;0.90;99.90;;;;;;5073679;28;20032;-53
2023/03/03 06:51:38;;;;;;;84.57;30.23;;;1.00;99.90;;;;;;5073665;28;20035;-55
2023/03/03 06:54:31;;;;;;;92.13;31.43;;;1.00;99.90;;;;;;5073442;28;20396;-52
2023/03/03 06:57:00;;;;;;;91.27;31.13;;;1.00;99.90;;;;;;5069258;28;20482;-52
2023/03/03 06:59:26;;;;;;;87.65;27.67;;;1.00;99.90;;;;;;5072146;28;20396;-51
2023/03/03 07:01:53;;;;;;;86.97;28.90;;;1.00;99.90;;;;;;5073391;28;20103;-51
2023/03/03 07:04:21;;;;;;;85.37;29.63;;;1.10;99.90;;;;;;5073165;28;20497;-52
2023/03/03 07:06:47;;;;;;;86.05;28.88;;;1.10;99.90;;;;;;5073131;28;20028;-50
2023/03/03 07:09:33;;;;;;;89.23;31.17;;;1.10;99.90;;;;;;5073181;28;20453;-52
2023/03/03 07:12:10;;;;;;;81.60;29.80;;;1.10;99.90;;;;;;5072734;28;20052;-52
2023/03/03 07:14:42;;;;;;;89.83;30.83;;;1.20;99.90;;;;;;5073164;28;20400;-52
2023/03/03 07:17:16;;;;;;;91.57;32.10;;;1.20;99.90;;;;;;5073004;28;20385;-51
2023/03/03 07:19:42;;;;;;;99.17;33.13;;;1.10;99.90;;;;;;5072945;28;20032;-49
2023/03/03 07:22:17;;;;;;;101.27;32.73;;;1.10;99.90;;;;;;5073108;28;20108;-53
2023/03/03 07:25:18;;;;;;;97.43;33.83;;;1.20;99.90;;;;;;5072607;28;20028;-50
2023/03/03 07:27:44;;;;;;;103.87;34.63;;;1.20;99.90;;;;;;5072443;28;20029;-51
2023/03/03 07:30:27;;;;;;;99.33;34.23;;;1.10;99.90;;;;;;5072866;28;20431;-49
2023/03/03 07:32:56;;;;;;;101.50;34.23;;;1.10;99.90;;;;;;5072548;28;20488;-50
2023/03/03 07:35:43;;;;;;;100.53;31.55;;;1.10;99.90;;;;;;5072456;28;20028;-54
2023/03/03 07:38:29;;;;;;;92.20;32.37;;;1.10;99.90;;;;;;5072254;28;20400;-54
2023/03/03 07:40:58;;;;;;;93.17;32.57;;;1.20;99.90;;;;;;5072342;28;20028;-51
2023/03/03 07:43:42;;;;;;;97.43;32.50;;;1.10;99.90;;;;;;5072539;28;20031;-51
2023/03/03 07:46:28;;;;;;;102.13;35.23;;;1.10;99.90;;;;;;5072526;28;20549;-52
2023/03/03 07:48:56;;;;;;;98.57;33.27;;;1.10;99.90;;;;;;5071626;28;20032;-50
2023/03/03 07:51:48;;;;;;;114.63;36.10;;;1.10;99.90;;;;;;5072220;28;20074;-50
2023/03/03 07:54:27;;;;;;;111.77;36.73;;;1.10;99.90;;;;;;5069749;28;20048;-51
2023/03/03 07:57:06;;;;;;;110.00;37.17;;;1.20;99.90;;;;;;5071963;28;20037;-51
2023/03/03 07:59:35;;;;;;;105.28;34.53;;;1.20;99.90;;;;;;5072056;28;20451;-53
2023/03/03 08:02:01;;;;;;;103.15;34.00;;;1.20;99.90;;;;;;5072175;28;20028;-52
2023/03/03 08:04:49;;;;;;;97.77;33.43;;;1.20;99.90;;;;;;5071843;28;20082;-51
2023/03/03 08:07:20;;;;;;;103.03;35.13;;;1.30;99.90;;;;;;5071748;28;20306;-50
2023/03/03 08:09:56;;;;;;;109.13;36.03;;;1.30;99.90;;;;;;5071680;28;20032;-52
2023/03/03 08:12:35;;;;;;;115.07;38.70;;;1.40;99.90;;;;;;5071819;28;20087;-52
2023/03/03 08:15:23;;;;;;;104.23;35.17;;;1.40;99.90;;;;;;5071519;28;20090;-51
2023/03/03 08:17:50;;;;;;;94.40;33.17;;;1.40;99.90;;;;;;5071234;28;20505;-52
2023/03/03 08:20:28;;;;;;;87.10;31.70;;;1.30;99.90;;;;;;5071461;28;20055;-50
2023/03/03 08:22:54;;;;;;;94.57;32.33;;;1.30;99.90;;;;;;5071415;28;20033;-52
2023/03/03 08:25:20;;;;;;;90.67;31.13;;;1.40;99.90;;;;;;5071381;28;20028;-51
2023/03/03 08:27:45;;;;;;;93.37;32.73;;;1.40;99.90;;;;;;5071249;28;20029;-50
2023/03/03 08:30:11;;;;;;;88.43;31.73;;;1.40;99.90;;;;;;5071305;28;20079;-53
2023/03/03 08:32:37;;;;;;;94.67;32.57;;;1.50;99.90;;;;;;5071402;28;20391;-49
2023/03/03 08:35:03;;;;;;;98.50;31.80;;;1.50;99.90;;;;;;5071077;28;20032;-51
2023/03/03 08:37:29;;;;;;;91.30;30.17;;;1.50;99.90;;;;;;5071122;28;20036;-51
2023/03/03 08:39:54;;;;;;;91.97;31.50;;;1.50;99.90;;;;;;5070964;28;20474;-52
2023/03/03 08:42:20;;;;;;;93.17;33.53;;;1.50;99.90;;;;;;5071053;28;20059;-49
2023/03/03 08:44:46;;;;;;;88.47;32.00;;;1.60;99.90;;;;;;5070833;28;20099;-50
2023/03/03 08:47:11;;;;;;;93.80;31.90;;;1.50;99.90;;;;;;5070888;28;20029;-49
2023/03/03 08:49:38;;;;;;;85.27;28.93;;;1.60;99.90;;;;;;5070972;28;20044;-51
2023/03/03 08:52:04;;;;;;;87.43;31.13;;;1.70;99.90;;;;;;5070937;28;20169;-51
2023/03/03 08:54:31;;;;;;;91.00;32.10;;;1.70;99.90;;;;;;5070765;28;20107;-49
2023/03/03 08:56:57;;;;;;;91.50;33.20;;;1.70;99.90;;;;;;5070890;28;20072;-51
2023/03/03 08:59:22;;;;;;;90.73;32.03;;;1.80;99.90;;;;;;5070707;28;20048;-51
2023/03/03 09:01:48;;;;;;;87.57;30.23;;;1.80;99.90;;;;;;5069899;28;20499;-52
2023/03/03 09:04:14;;;;;;;80.03;28.47;;;1.80;99.90;;;;;;5070630;28;20028;-53
2023/03/03 09:06:40;;;;;;;81.33;29.97;;;1.80;99.90;;;;;;5070528;28;20025;-53
2023/03/03 09:09:06;;;;;;;80.07;28.07;;;1.70;99.90;;;;;;5070780;28;20028;-52
2023/03/03 09:11:32;;;;;;;79.67;29.00;;;1.80;99.90;;;;;;5070796;28;20099;-49
2023/03/03 09:14:16;;;;;;;85.87;29.43;;;1.80;99.90;;;;;;5069326;28;20427;-51
2023/03/03 09:16:49;;;;;;;88.33;31.17;;;1.80;99.90;;;;;;5070554;28;20036;-50
2023/03/03 09:19:35;;;;;;;90.97;31.23;;;1.80;99.90;;;;;;5069228;28;20033;-53
2023/03/03 09:22:18;;;;;;;86.53;30.37;;;1.80;99.90;;;;;;5070424;28;20036;-52
2023/03/03 09:24:47;;;;;;;89.53;31.63;;;1.90;99.90;;;;;;5070398;28;20403;-53
2023/03/03 09:27:27;;;;;;;85.32;29.83;;;1.90;99.90;;;;;;5070420;28;20107;-50
2023/03/03 09:29:53;;;;;;;81.57;28.83;;;2.00;99.90;;;;;;5070596;28;20054;-52
2023/03/03 09:32:37;;;;;;;83.20;28.47;;;1.90;99.90;;;;;;5070533;28;20036;-52
2023/03/03 09:35:39;;;;;;;81.93;27.73;;;2.00;99.90;;;;;;5070188;28;20036;-52
2023/03/03 09:38:26;;;;;;;81.53;27.37;;;1.90;99.90;;;;;;5047922;28;20047;-51
2023/03/03 09:41:04;;;;;;;80.87;29.37;;;2.10;99.90;;;;;;5070177;28;20044;-54
2023/03/03 09:43:51;;;;;;;88.23;30.23;;;2.20;99.90;;;;;;5070255;28;20073;-52
2023/03/03 09:46:33;;;;;;;78.00;27.87;;;2.20;99.90;;;;;;5070441;28;20032;-48
2023/03/03 09:49:14;;;;;;;79.30;27.17;;;2.30;99.90;;;;;;5070225;28;20041;-52
2023/03/03 09:52:01;;;;;;;75.87;27.17;;;2.40;99.90;;;;;;5070190;28;20039;-49
2023/03/03 09:54:53;;;;;;;82.83;28.90;;;2.40;99.90;;;;;;5070117;28;20107;-52
2023/03/03 09:57:47;;;;;;;76.57;27.17;;;2.40;99.90;;;;;;5070024;28;20025;-50
2023/03/03 10:00:33;;;;;;;77.93;27.80;;;2.30;99.90;;;;;;5050308;28;20048;-52
2023/03/03 10:03:07;;;;;;;73.00;27.33;;;2.40;99.90;;;;;;5070113;28;20033;-50
2023/03/03 10:05:52;;;;;;;71.43;25.70;;;2.50;99.90;;;;;;5070092;28;20481;-51
2023/03/03 10:08:41;;;;;;;77.20;26.10;;;2.50;99.90;;;;;;5069714;28;20090;-52
2023/03/03 10:11:27;;;;;;;69.07;25.48;;;2.50;99.90;;;;;;5064467;28;20041;-51
2023/03/03 10:14:14;;;;;;;69.77;24.90;;;2.50;99.90;;;;;;5074043;28;20166;-50
2023/03/03 10:16:40;;;;;;;67.37;25.37;;;2.60;99.90;;;;;;5072452;28;20033;-48
2023/03/03 10:19:37;;;;;;;64.37;24.63;;;2.60;99.90;;;;;;5073760;28;20451;-52
2023/03/03 10:22:23;;;;;;;62.03;23.60;;;2.60;99.90;;;;;;5073809;28;20373;-53
2023/03/03 10:24:58;;;;;;;63.10;23.33;;;2.70;99.90;;;;;;5073596;28;20040;-51
2023/03/03 10:27:53;;;;;;;60.50;23.87;;;2.70;99.90;;;;;;5073648;28;20032;-53
2023/03/03 10:30:42;;;;;;;70.13;27.17;;;2.80;99.90;;;;;;5073900;28;20067;-52
2023/03/03 10:33:31;;;;;;;77.07;28.08;;;2.80;99.90;;;;;;5073669;28;20024;-52
2023/03/03 10:36:12;;;;;;;74.35;28.30;;;2.80;99.90;;;;;;5073566;28;20037;-50
2023/03/03 10:39:01;;;;;;;73.40;27.63;;;2.80;99.90;;;;;;5073301;28;20028;-52
2023/03/03 10:41:50;;;;;;;78.55;29.65;;;2.90;99.90;;;;;;5087252;22;20052;-51
2023/03/03 10:45:14;;;;;;;86.03;32.73;;;2.80;99.90;;;;;;5072911;28;20036;-48
2023/03/03 10:47:55;;;;;;;83.90;32.00;;;2.90;99.90;;;;;;4985809;28;20038;-50
2023/03/03 10:50:35;;;;;;;84.27;31.10;;;2.80;99.90;;;;;;5073427;28;20382;-49
2023/03/03 10:53:19;;;;;;;76.70;30.60;;;3.00;99.90;;;;;;5073060;28;20044;-50
2023/03/03 10:56:08;;;;;;;75.80;28.57;;;3.00;99.90;;;;;;5073086;28;20039;-46
2023/03/03 10:58:41;;;;;;;68.90;28.27;;;3.10;99.90;;;;;;5072840;28;20551;-52
2023/03/03 11:01:25;;;;;;;66.77;26.07;;;3.10;99.90;;;;;;5073505;28;20471;-49
2023/03/03 11:04:21;;;;;;;62.23;25.03;;;3.20;99.90;;;;;;5072830;28;20028;-48
2023/03/03 11:07:01;;;;;;;61.70;24.13;;;3.20;99.90;;;;;;5054805;28;20044;-50
2023/03/03 11:09:36;;;;;;;59.83;22.40;;;3.20;99.90;;;;;;5072909;28;20504;-49
2023/03/03 11:12:24;;;;;;;62.17;23.67;;;3.20;99.90;;;;;;5072902;28;20025;-46
2023/03/03 11:15:28;;;;;;;58.63;22.33;;;3.10;99.90;;;;;;5073008;28;20458;-48
2023/03/03 11:18:14;;;;;;;56.17;20.67;;;3.10;99.90;;;;;;5072460;28;20032;-50
2023/03/03 11:20:58;;;;;;;58.27;20.17;;;3.10;99.90;;;;;;5072645;28;20033;-49
2023/03/03 11:23:32;;;;;;;54.63;22.17;;;3.10;99.90;;;;;;5071649;28;20772;-48
2023/03/03 11:26:22;;;;;;;57.37;22.70;;;3.10;99.90;;;;;;5072477;28;20477;-49
2023/03/03 11:29:14;;;;;;;57.37;22.13;;;3.30;99.90;;;;;;5072503;28;20385;-52
2023/03/03 11:31:47;;;;;;;71.27;25.57;;;3.50;99.90;;;;;;5036050;28;20426;-48
2023/03/03 11:34:22;;;;;;;71.77;26.30;;;3.40;99.90;;;;;;5072219;28;20055;-49
2023/03/03 11:37:04;;;;;;;69.10;25.47;;;3.40;99.90;;;;;;5072184;28;20056;-51
2023/03/03 11:39:31;;;;;;;69.27;24.67;;;3.30;99.90;;;;;;5072411;28;20112;-48
2023/03/03 11:42:25;;;;;;;63.10;24.67;;;3.40;99.90;;;;;;5071986;28;20036;-47
2023/03/03 11:45:01;;;;;;;69.83;24.40;;;3.30;99.90;;;;;;5072085;28;20037;-47
2023/03/03 11:47:30;;;;;;;64.13;23.77;;;3.30;99.90;;;;;;5071981;28;20082;-47
2023/03/03 11:50:07;;;;;;;;;;;3.40;99.90;;;;;;5072707;28;20378;-50
2023/03/03 11:52:52;;;;;;;64.97;23.57;;;3.40;99.90;;;;;;5072026;28;20411;-47
2023/03/03 11:55:23;;;;;;;64.57;24.10;;;3.40;99.90;;;;;;5072168;28;20389;-47
2023/03/03 11:58:09;;;;;;;68.23;25.97;;;3.40;99.90;;;;;;5071727;28;20028;-49
2023/03/03 12:01:00;;;;;;;62.93;24.97;;;3.40;99.90;;;;;;5071836;28;20033;-48
2023/03/03 12:03:46;;;;;;;66.33;25.70;;;3.40;99.90;;;;;;5071721;28;20435;-53
2023/03/03 12:06:23;;;;;;;63.77;24.93;;;3.50;99.90;;;;;;5072173;28;20036;-47
2023/03/03 12:09:20;;;;;;;69.20;25.13;;;3.60;99.90;;;;;;5071672;28;20024;-50
2023/03/03 12:12:17;;;;;;;63.67;25.87;;;3.60;99.90;;;;;;5071718;28;20037;-46
2023/03/03 12:15:11;;;;;;;66.27;26.67;;;3.80;99.90;;;;;;5060509;28;20123;-49
2023/03/03 12:18:01;;;;;;;62.07;25.67;;;3.70;99.90;;;;;;5071247;28;20514;-46
2023/03/03 12:20:49;;;;;;;60.33;25.33;;;3.70;99.90;;;;;;5071366;28;20072;-51
2023/03/03 12:23:36;;;;;;;69.67;26.67;;;3.80;99.90;;;;;;5071483;28;20025;-47
2023/03/03 12:26:19;;;;;;;71.47;29.10;;;3.80;99.90;;;;;;5071406;28;20035;-50
2023/03/03 12:28:50;;;;;;;70.20;29.53;;;3.90;99.90;;;;;;5071213;28;20556;-49
2023/03/03 12:31:41;;;;;;;67.93;29.63;;;4.00;99.90;;;;;;5071238;28;20071;-47
2023/03/03 12:34:14;;;;;;;72.67;29.20;;;4.30;99.90;;;;;;5070936;28;20390;-50
2023/03/03 12:36:58;;;;;;;72.73;30.40;;;4.30;99.90;;;;;;5052869;28;20175;-48
2023/03/03 12:39:36;;;;;;;71.63;30.43;;;4.30;99.90;;;;;;5070935;28;20432;-49
2023/03/03 12:42:28;;;;;;;71.77;30.30;;;4.20;99.90;;;;;;5071009;28;20064;-49
2023/03/03 12:45:23;;;;;;;71.57;30.23;;;4.20;99.90;;;;;;5070897;28;20116;-47
2023/03/03 12:48:08;;;;;;;71.47;29.33;;;4.30;99.90;;;;;;5060041;28;20090;-48
2023/03/03 12:51:08;;;;;;;68.33;30.23;;;4.40;99.90;;;;;;5070986;28;20523;-49
2023/03/03 12:53:53;;;;;;;66.67;30.00;;;4.50;99.90;;;;;;5071061;28;20424;-48
2023/03/03 12:56:44;;;;;;;64.50;28.93;;;4.40;99.90;;;;;;5070926;28;20477;-50
2023/03/03 12:59:41;;;;;;;58.73;27.33;;;4.40;99.90;;;;;;5070675;28;20052;-50
2023/03/03 13:02:18;;;;;;;58.00;26.17;;;4.30;99.90;;;;;;5070992;28;20036;-48
2023/03/03 13:05:01;;;;;;;53.47;26.03;;;4.70;99.90;;;;;;5070744;28;20052;-50
2023/03/03 13:08:06;;;;;;;54.60;25.37;;;5.40;99.90;;;;;;5070405;28;20396;-48